Flugwetter Augsburg

[source: ADDS]
METAR
EDMA 230420Z AUTO 13003KT 9999 // OVC079/// 12/11 Q1017 =
TAF EDMA 221700Z 2218/2303 14004KT CAVOK
TAF
TAF EDMA 221700Z 2218/2303 14004KT CAVOK =
Cookies erleichtern die Bereitstellung unserer Dienste. Mit der Nutzung unserer Dienste erklären Sie sich damit einverstanden, dass wir Cookies verwenden.
Weitere Informationen Ok